Terminal Aerodrome Forecast
Issued by NWS

Home | Current Version | Previous Version | Graphics & Text | Print | Product List | Glossary On
Versions: 1 2 3 4 5 6 7 8 9 10 11 12 13 14 15 16 17 18 19 20 21 22 23 24 25 26 27 28 29
000
FTUS43 KLOT 200900 AAA
TAFORD
TAF AMD
KORD 200900Z 2009/2112 22012KT 4SM -RA BR SCT009 OVC018
      TEMPO 2010/2013 1SM BR SCT005 OVC009
     FM201300 21012KT 1 1/2SM -SHRA BR OVC005 WS020/22050KT
     FM201700 21012G18KT 3SM RA BR SCT005 OVC008 WS020/22050KT
      TEMPO 2017/2021 2SM TSRA BR OVC005CB
     FM202100 27011KT 2SM -SHRA BR OVC004
     FM210100 31012KT 6SM -SHRA BR OVC008
     FM210600 32012G17KT P6SM SCT010 BKN035=

USA.gov is the U.S. government's official web portal to all federal, state and local government web resources and services.